createdAt,value
2019-06-07T00:01:24.062Z,4.13
2019-06-07T00:03:54.207Z,3.60
2019-06-07T00:06:25.688Z,3.57
2019-06-07T00:08:56.133Z,3.23
2019-06-07T00:11:26.122Z,3.10
2019-06-07T00:13:57.751Z,3.70
2019-06-07T00:16:27.801Z,3.60
2019-06-07T00:18:57.951Z,3.33
2019-06-07T00:22:12.843Z,3.30
2019-06-07T00:23:59.653Z,3.30
2019-06-07T00:26:29.696Z,3.07
2019-06-07T00:28:59.776Z,3.97
2019-06-07T00:31:29.757Z,3.47
2019-06-07T00:33:59.857Z,2.80
2019-06-07T00:36:29.835Z,3.07
2019-06-07T00:39:01.235Z,3.60
2019-06-07T00:41:32.885Z,3.93
2019-06-07T00:44:02.894Z,3.43
2019-06-07T00:46:32.955Z,3.83
2019-06-07T00:49:02.970Z,3.47
2019-06-07T00:51:49.604Z,4.00
2019-06-07T00:54:04.676Z,5.00
2019-06-07T00:56:34.654Z,4.20
2019-06-07T00:59:11.400Z,5.50
2019-06-07T01:01:36.477Z,5.67
2019-06-07T01:04:06.465Z,5.77
2019-06-07T01:06:36.566Z,6.53
2019-06-07T01:09:08.962Z,6.23
2019-06-07T01:11:39.051Z,6.47
2019-06-07T01:14:09.111Z,6.53
2019-06-07T01:16:56.674Z,5.10
2019-06-07T01:19:10.842Z,6.13
2019-06-07T01:21:40.862Z,6.13
2019-06-07T01:24:12.497Z,5.40
2019-06-07T01:26:42.563Z,5.33
2019-06-07T01:29:12.552Z,6.70
2019-06-07T01:31:44.205Z,5.53
2019-06-07T01:34:14.339Z,5.03
2019-06-07T01:36:44.426Z,5.03
2019-06-07T01:39:14.419Z,5.77
2019-06-07T01:41:44.527Z,5.80
2019-06-07T01:44:14.561Z,5.47
2019-06-07T01:46:44.536Z,5.33
2019-06-07T01:49:14.558Z,5.70
2019-06-07T01:51:44.614Z,5.30
2019-06-07T01:54:49.215Z,5.40
2019-06-07T01:56:46.332Z,4.77
2019-06-07T01:59:17.785Z,4.97
2019-06-07T02:01:47.837Z,5.27
2019-06-07T02:04:21.584Z,4.90
2019-06-07T02:06:49.560Z,4.97
2019-06-07T02:09:20.877Z,4.50
2019-06-07T02:11:51.101Z,4.73
2019-06-07T02:14:25.350Z,4.93
2019-06-07T02:16:52.833Z,4.40
2019-06-07T02:19:24.292Z,5.03
2019-06-07T02:21:54.374Z,5.10
2019-06-07T02:24:25.251Z,4.63
2019-06-07T02:26:57.231Z,5.27
2019-06-07T02:29:30.275Z,4.60
2019-06-07T02:31:58.920Z,4.80
2019-06-07T02:34:35.897Z,4.40
2019-06-07T02:37:00.688Z,5.10
2019-06-07T02:39:36.837Z,4.43
2019-06-07T02:42:02.304Z,4.70
2019-06-07T02:44:38.530Z,5.73
2019-06-07T02:47:04.064Z,5.10
2019-06-07T02:49:40.468Z,5.63
2019-06-07T02:52:05.826Z,5.90
2019-06-07T02:54:39.634Z,5.60
2019-06-07T02:57:07.508Z,5.97
2019-06-07T03:00:04.430Z,5.50
2019-06-07T03:02:10.777Z,6.43
2019-06-07T03:04:44.727Z,4.80
2019-06-07T03:07:14.961Z,5.40
2019-06-07T03:09:47.072Z,5.87
2019-06-07T03:12:19.974Z,5.53
2019-06-07T03:14:51.391Z,4.87
2019-06-07T03:17:30.466Z,5.20
2019-06-07T03:20:03.463Z,5.30
2019-06-07T03:22:39.837Z,5.30
2019-06-07T03:25:07.803Z,5.33
2019-06-07T03:27:46.516Z,5.07
2019-06-07T03:30:36.258Z,4.47
2019-06-07T03:32:47.434Z,4.63
2019-06-07T03:35:14.227Z,5.00
2019-06-07T03:37:44.279Z,5.27
2019-06-07T03:40:14.294Z,4.83
2019-06-07T03:42:44.278Z,4.23
2019-06-07T03:45:14.417Z,4.90
2019-06-07T03:47:44.466Z,4.80
2019-06-07T03:50:15.453Z,4.60
2019-06-07T03:52:45.433Z,4.30
2019-06-07T03:55:15.457Z,4.87
2019-06-07T03:58:30.046Z,5.20
2019-06-07T04:00:17.385Z,4.97
2019-06-07T04:02:48.434Z,5.23
2019-06-07T04:05:18.455Z,5.53
2019-06-07T04:07:48.669Z,5.00
2019-06-07T04:10:18.782Z,5.77
2019-06-07T04:12:48.798Z,5.43
2019-06-07T04:15:18.787Z,5.40
2019-06-07T04:18:01.366Z,5.23
2019-06-07T04:20:20.998Z,7.33
2019-06-07T04:22:51.016Z,7.47
2019-06-07T04:25:21.001Z,8.70
2019-06-07T04:27:51.316Z,8.33
2019-06-07T04:30:37.280Z,8.87
2019-06-07T04:33:08.581Z,9.23
2019-06-07T04:35:42.874Z,7.83
2019-06-07T04:38:14.161Z,6.17
2019-06-07T04:40:47.047Z,6.90
2019-06-07T04:43:17.317Z,7.90
2019-06-07T04:45:51.531Z,7.83
2019-06-07T04:50:52.852Z,7.10
2019-06-07T04:53:22.861Z,6.33
2019-06-07T04:55:52.873Z,6.77
2019-06-07T04:58:22.896Z,6.70
2019-06-07T05:00:59.120Z,6.33
2019-06-07T05:03:24.797Z,6.73
2019-06-07T05:05:54.853Z,6.87
2019-06-07T05:08:28.509Z,6.50
2019-06-07T05:10:56.574Z,6.43
2019-06-07T05:13:26.639Z,6.50
2019-06-07T05:15:56.582Z,7.10
2019-06-07T05:18:26.605Z,6.43
2019-06-07T05:20:56.678Z,6.33
2019-06-07T05:24:03.108Z,7.10
2019-06-07T05:25:58.449Z,7.13
2019-06-07T05:28:28.546Z,6.80
2019-06-07T05:31:04.716Z,6.90
2019-06-07T05:33:31.157Z,7.03
2019-06-07T05:36:01.851Z,6.93
2019-06-07T05:38:33.380Z,7.60
2019-06-07T05:41:03.549Z,7.40
2019-06-07T05:43:35.020Z,7.90
2019-06-07T05:46:05.566Z,8.07
2019-06-07T05:48:40.312Z,8.00
2019-06-07T05:51:08.810Z,7.77
2019-06-07T05:53:40.431Z,7.70
2019-06-07T05:56:11.704Z,8.10
2019-06-07T05:58:44.549Z,7.70
2019-06-07T06:01:42.311Z,7.90
2019-06-07T06:03:48.024Z,8.00
2019-06-07T06:06:17.849Z,7.77
2019-06-07T06:08:49.582Z,7.50
2019-06-07T06:11:19.824Z,7.83
2019-06-07T06:14:07.566Z,7.03
2019-06-07T06:16:23.875Z,6.50
2019-06-07T06:18:53.931Z,6.53
2019-06-07T06:21:23.997Z,7.30
2019-06-07T06:23:54.157Z,7.87
2019-06-07T06:26:24.150Z,6.13
2019-06-07T06:28:54.204Z,6.73
2019-06-07T06:31:24.542Z,6.83
2019-06-07T06:33:54.562Z,6.37
2019-06-07T06:36:24.579Z,6.47
2019-06-07T06:38:54.614Z,6.77
2019-06-07T06:41:24.607Z,6.50
2019-06-07T06:43:54.614Z,6.00
2019-06-07T06:46:38.155Z,6.30
2019-06-07T06:48:56.312Z,6.77
2019-06-07T06:51:26.312Z,6.47
2019-06-07T06:53:56.340Z,6.27
2019-06-07T06:56:26.328Z,6.43
2019-06-07T07:01:28.021Z,5.10
2019-06-07T07:04:11.569Z,6.13
2019-06-07T07:06:30.543Z,5.93
2019-06-07T07:09:01.833Z,5.47
2019-06-07T07:11:33.605Z,5.80
2019-06-07T07:14:03.594Z,5.57
2019-06-07T07:16:33.610Z,6.57
2019-06-07T07:19:03.668Z,6.23
2019-06-07T07:21:33.693Z,5.70
2019-06-07T07:24:20.372Z,5.43
2019-06-07T07:26:35.406Z,4.77
2019-06-07T07:29:06.130Z,4.63
2019-06-07T07:31:36.098Z,5.50
2019-06-07T07:34:31.876Z,6.20
2019-06-07T07:36:39.801Z,4.97
2019-06-07T07:39:09.670Z,4.63
2019-06-07T07:41:39.668Z,4.50
2019-06-07T07:44:10.013Z,4.63
2019-06-07T07:46:40.246Z,4.17
2019-06-07T07:49:10.253Z,4.30
2019-06-07T07:51:40.229Z,4.40
2019-06-07T07:54:11.366Z,4.07
2019-06-07T07:56:41.590Z,3.70
2019-06-07T07:59:11.608Z,4.83
2019-06-07T08:01:41.585Z,3.80
2019-06-07T08:04:11.643Z,3.80
2019-06-07T08:06:41.656Z,4.00
2019-06-07T08:09:11.675Z,4.03
2019-06-07T08:11:41.673Z,3.70
2019-06-07T08:14:11.689Z,3.63
2019-06-07T08:16:41.677Z,3.20
2019-06-07T08:19:13.097Z,3.47
2019-06-07T08:21:43.440Z,3.50
2019-06-07T08:24:13.451Z,3.23
2019-06-07T08:26:43.455Z,3.80
2019-06-07T08:29:13.394Z,3.73
2019-06-07T08:31:43.292Z,4.00
2019-06-07T08:34:13.299Z,3.83
2019-06-07T08:36:43.289Z,3.47
2019-06-07T08:39:13.326Z,3.27
2019-06-07T08:41:53.798Z,3.70
2019-06-07T08:44:23.471Z,3.23
2019-06-07T08:46:46.701Z,3.80
2019-06-07T08:49:16.701Z,3.40
2019-06-07T08:51:46.681Z,3.33
2019-06-07T08:54:22.896Z,4.33
2019-06-07T08:56:48.359Z,3.50
2019-06-07T08:59:18.332Z,4.10
2019-06-07T09:01:48.296Z,3.70
2019-06-07T09:04:18.322Z,3.33
2019-06-07T09:07:07.359Z,3.20
2019-06-07T09:09:19.993Z,3.20
2019-06-07T09:11:49.974Z,3.20
2019-06-07T09:14:19.989Z,3.47
2019-06-07T09:16:49.901Z,3.70
2019-06-07T09:19:19.985Z,3.27
2019-06-07T09:21:49.968Z,2.97
2019-06-07T09:24:20.055Z,3.70
2019-06-07T09:26:50.035Z,3.50
2019-06-07T09:29:20.741Z,3.20
2019-06-07T09:31:53.415Z,3.77
2019-06-07T09:34:22.533Z,3.13
2019-06-07T09:36:53.014Z,3.50
2019-06-07T09:39:23.063Z,3.17
2019-06-07T09:41:54.561Z,3.10
2019-06-07T09:44:26.441Z,2.83
2019-06-07T09:47:19.941Z,3.60
2019-06-07T09:49:32.559Z,3.63
2019-06-07T09:52:02.721Z,3.80
2019-06-07T09:55:03.810Z,3.70
2019-06-07T09:57:07.540Z,3.17
2019-06-07T09:59:34.882Z,3.60
2019-06-07T10:02:08.229Z,3.67
2019-06-07T10:04:36.566Z,3.50
2019-06-07T10:07:17.227Z,3.93
2019-06-07T10:12:10.306Z,4.23
2019-06-07T10:14:44.128Z,3.93
2019-06-07T10:17:12.162Z,3.97
2019-06-07T10:19:42.187Z,3.20
2019-06-07T10:22:13.486Z,4.10
2019-06-07T10:24:43.845Z,3.60
2019-06-07T10:27:13.884Z,4.33
2019-06-07T10:29:45.130Z,3.73
2019-06-07T10:32:15.156Z,3.70
2019-06-07T10:34:45.198Z,3.77
2019-06-07T10:37:15.895Z,3.27
2019-06-07T10:39:49.124Z,4.50
2019-06-07T10:42:18.068Z,4.03
2019-06-07T10:44:48.371Z,3.87
2019-06-07T10:47:18.384Z,3.37
2019-06-07T10:49:50.743Z,3.57
2019-06-07T10:52:20.855Z,3.40
2019-06-07T10:54:50.965Z,3.83
2019-06-07T10:57:21.170Z,3.67
2019-06-07T10:59:58.443Z,3.80
2019-06-07T11:02:29.591Z,3.10
2019-06-07T11:05:00.069Z,3.20
2019-06-07T11:07:30.434Z,4.50
2019-06-07T11:10:07.373Z,3.10
2019-06-07T11:12:34.764Z,3.03
2019-06-07T11:15:08.647Z,3.10
2019-06-07T11:17:39.115Z,2.90
2019-06-07T11:20:10.416Z,3.83
2019-06-07T11:22:40.795Z,2.97
2019-06-07T11:25:12.821Z,3.50
2019-06-07T11:27:43.753Z,3.40
2019-06-07T11:30:14.590Z,2.80
2019-06-07T11:32:44.620Z,3.37
2019-06-07T11:35:15.672Z,2.97
2019-06-07T11:37:45.719Z,2.97
2019-06-07T11:40:29.731Z,2.80
2019-06-07T11:42:47.697Z,3.40
2019-06-07T11:45:19.071Z,3.40
2019-06-07T11:47:49.532Z,2.63
2019-06-07T11:50:26.177Z,3.20
2019-06-07T11:53:02.910Z,3.27
2019-06-07T11:55:37.089Z,3.07
2019-06-07T11:58:16.074Z,3.20
2019-06-07T12:00:51.513Z,2.80
2019-06-07T12:03:28.066Z,2.90
2019-06-07T12:06:01.918Z,2.80
2019-06-07T12:08:33.032Z,2.85
2019-06-07T12:11:05.136Z,2.80
2019-06-07T12:13:37.397Z,2.87
2019-06-07T12:16:08.924Z,3.10
2019-06-07T12:18:39.018Z,3.50
2019-06-07T12:21:09.728Z,2.90
2019-06-07T12:23:41.963Z,3.27
2019-06-07T12:26:12.307Z,3.00
2019-06-07T12:28:42.875Z,2.90
2019-06-07T12:31:15.053Z,2.77
2019-06-07T12:33:47.942Z,3.03
2019-06-07T12:36:24.795Z,3.03
2019-06-07T12:38:57.237Z,3.10
2019-06-07T12:41:32.025Z,2.75
2019-06-07T12:44:02.481Z,2.83
2019-06-07T12:46:32.900Z,3.23
2019-06-07T12:49:04.471Z,2.87
2019-06-07T12:51:34.518Z,2.50
2019-06-07T12:54:05.371Z,3.00
2019-06-07T12:56:35.604Z,2.47
2019-06-07T12:59:06.499Z,2.77
2019-06-07T13:01:37.151Z,2.53
2019-06-07T13:04:07.319Z,2.80
2019-06-07T13:06:37.414Z,2.67
2019-06-07T13:09:10.410Z,2.80
2019-06-07T13:11:47.417Z,2.70
2019-06-07T13:14:20.065Z,2.70
2019-06-07T13:16:50.181Z,2.60
2019-06-07T13:19:22.078Z,2.60
2019-06-07T13:21:52.353Z,2.53
2019-06-07T13:24:22.875Z,2.57
2019-06-07T13:26:52.997Z,2.60
2019-06-07T13:29:23.073Z,2.53
2019-06-07T13:31:53.155Z,2.57
2019-06-07T13:34:24.292Z,2.63
2019-06-07T13:36:54.613Z,2.60
2019-06-07T13:39:27.811Z,2.93
2019-06-07T13:41:56.302Z,2.83
2019-06-07T13:44:26.412Z,2.90
2019-06-07T13:46:56.783Z,2.60
2019-06-07T13:49:27.835Z,2.80
2019-06-07T13:51:58.201Z,2.63
2019-06-07T13:54:29.599Z,2.53
2019-06-07T13:57:02.509Z,2.83
2019-06-07T13:59:32.032Z,2.30
2019-06-07T14:02:02.046Z,2.60
2019-06-07T14:04:32.235Z,2.47
2019-06-07T14:07:02.137Z,2.90
2019-06-07T14:09:32.674Z,2.80
2019-06-07T14:12:03.874Z,2.67
2019-06-07T14:14:33.937Z,2.97
2019-06-07T14:17:03.988Z,2.63
2019-06-07T14:19:34.383Z,2.70
2019-06-07T14:22:04.848Z,3.00
2019-06-07T14:24:35.712Z,3.07
2019-06-07T14:27:09.777Z,2.87
2019-06-07T14:29:41.925Z,2.60
2019-06-07T14:32:12.487Z,2.70
2019-06-07T14:34:45.162Z,3.50
2019-06-07T14:37:15.649Z,3.00
2019-06-07T14:39:45.977Z,3.10
2019-06-07T14:42:15.998Z,2.87
2019-06-07T14:44:45.902Z,2.97
2019-06-07T14:47:15.920Z,2.63
2019-06-07T14:49:45.893Z,2.93
2019-06-07T14:52:15.938Z,3.00
2019-06-07T14:54:46.494Z,2.57
2019-06-07T14:57:16.654Z,2.60
2019-06-07T14:59:46.694Z,2.90
2019-06-07T15:02:17.688Z,2.90
2019-06-07T15:04:48.903Z,2.90
2019-06-07T15:07:18.963Z,3.30
2019-06-07T15:09:49.506Z,3.00
2019-06-07T15:12:24.989Z,3.00
2019-06-07T15:14:53.114Z,2.83
2019-06-07T15:17:23.452Z,3.60
2019-06-07T15:19:53.470Z,3.03
2019-06-07T15:22:23.424Z,3.63
2019-06-07T15:24:54.295Z,2.50
2019-06-07T15:27:24.380Z,2.90
2019-06-07T15:29:54.346Z,2.83
2019-06-07T15:32:24.496Z,2.60
2019-06-07T15:34:54.806Z,2.80
2019-06-07T15:37:24.809Z,2.73
2019-06-07T15:39:54.787Z,2.90
2019-06-07T15:42:40.128Z,2.77
2019-06-07T15:44:56.899Z,2.53
2019-06-07T15:47:27.850Z,2.73
2019-06-07T15:50:00.876Z,3.03
2019-06-07T15:52:31.453Z,2.73
2019-06-07T15:55:01.912Z,2.63
2019-06-07T15:57:33.389Z,2.80
2019-06-07T16:00:05.092Z,2.50
2019-06-07T16:02:37.498Z,2.67
2019-06-07T16:05:08.032Z,2.50
2019-06-07T16:07:40.327Z,2.93
2019-06-07T16:10:11.494Z,2.77
2019-06-07T16:12:57.640Z,3.07
2019-06-07T16:15:15.301Z,3.17
2019-06-07T16:17:46.237Z,3.20
2019-06-07T16:20:16.982Z,3.40
2019-06-07T16:22:47.002Z,3.50
2019-06-07T16:25:17.234Z,3.43
2019-06-07T16:27:47.634Z,3.20
2019-06-07T16:30:21.131Z,3.27
2019-06-07T16:32:51.387Z,3.35
2019-06-07T16:35:21.992Z,3.40
2019-06-07T16:37:52.571Z,3.53
2019-06-07T16:40:23.042Z,3.40
2019-06-07T16:42:53.016Z,3.37
2019-06-07T16:45:23.124Z,3.40
2019-06-07T16:47:53.114Z,3.40
2019-06-07T16:50:23.547Z,2.90
2019-06-07T16:52:53.537Z,3.83
2019-06-07T16:55:23.655Z,3.17
2019-06-07T16:57:53.643Z,3.47
2019-06-07T17:00:25.838Z,3.57
2019-06-07T17:02:55.950Z,3.60
2019-06-07T17:05:25.960Z,3.40
2019-06-07T17:07:55.933Z,3.10
2019-06-07T17:10:25.944Z,3.33
2019-06-07T17:12:56.166Z,3.40
2019-06-07T17:15:26.217Z,3.27
2019-06-07T17:17:56.226Z,3.23
2019-06-07T17:20:26.205Z,2.97
2019-06-07T17:22:56.403Z,3.20
2019-06-07T17:25:26.377Z,3.07
2019-06-07T17:27:56.478Z,3.23
2019-06-07T17:30:26.626Z,3.27
2019-06-07T17:32:59.278Z,3.00
2019-06-07T17:35:28.695Z,3.17
2019-06-07T17:37:58.866Z,2.90
2019-06-07T17:40:28.893Z,2.73
2019-06-07T17:42:59.310Z,3.20
2019-06-07T17:45:29.282Z,3.40
2019-06-07T17:47:59.316Z,3.10
2019-06-07T17:50:29.273Z,3.20
2019-06-07T17:52:59.333Z,3.73
2019-06-07T17:55:29.686Z,3.50
2019-06-07T17:57:59.736Z,3.50
2019-06-07T18:00:35.351Z,3.70
2019-06-07T18:03:05.478Z,3.00
2019-06-07T18:05:35.462Z,3.13
2019-06-07T18:08:05.573Z,3.30
2019-06-07T18:10:39.767Z,3.30
2019-06-07T18:13:09.885Z,3.20
2019-06-07T18:15:42.294Z,3.57
2019-06-07T18:18:12.504Z,3.60
2019-06-07T18:20:45.041Z,3.60
2019-06-07T18:23:15.176Z,3.87
2019-06-07T18:25:46.312Z,3.77
2019-06-07T18:28:16.947Z,3.87
2019-06-07T18:30:46.934Z,3.93
2019-06-07T18:33:17.014Z,3.80
2019-06-07T18:35:47.169Z,3.57
2019-06-07T18:38:17.202Z,3.83
2019-06-07T18:40:47.270Z,3.57
2019-06-07T18:43:17.269Z,3.60
2019-06-07T18:45:47.416Z,3.93
2019-06-07T18:48:17.434Z,4.17
2019-06-07T18:50:48.628Z,3.80
2019-06-07T18:53:18.795Z,3.70
2019-06-07T18:55:49.884Z,4.30
2019-06-07T18:58:20.669Z,3.50
2019-06-07T19:00:51.430Z,4.10
2019-06-07T19:03:21.925Z,5.60
2019-06-07T19:05:52.209Z,16.03
2019-06-07T19:08:22.329Z,21.53
2019-06-07T19:10:52.683Z,10.03
2019-06-07T19:13:22.675Z,5.23
2019-06-07T19:15:53.369Z,18.83
2019-06-07T19:18:25.492Z,28.13
2019-06-07T19:20:56.424Z,9.50
2019-06-07T19:23:27.087Z,7.47
2019-06-07T19:25:58.308Z,25.83
2019-06-07T19:28:28.881Z,7.30
2019-06-07T19:30:59.173Z,5.00
2019-06-07T19:33:29.662Z,5.60
2019-06-07T19:36:01.757Z,5.60
2019-06-07T19:38:32.196Z,12.63
2019-06-07T19:41:18.990Z,5.33
2019-06-07T19:43:34.062Z,5.27
2019-06-07T19:46:04.033Z,4.83
2019-06-07T19:48:34.067Z,5.07
2019-06-07T19:51:04.090Z,5.63
2019-06-07T19:53:34.212Z,5.17
2019-06-07T19:56:04.199Z,5.10
2019-06-07T19:58:34.214Z,5.20
2019-06-07T20:01:05.395Z,7.67
2019-06-07T20:03:35.403Z,5.70
2019-06-07T20:06:05.383Z,4.70
2019-06-07T20:08:35.397Z,5.00
2019-06-07T20:11:06.650Z,6.87
2019-06-07T20:13:36.671Z,8.97
2019-06-07T20:16:06.828Z,7.17
2019-06-07T20:18:37.004Z,4.73
2019-06-07T20:21:06.996Z,4.90
2019-06-07T20:23:37.727Z,4.53
2019-06-07T20:26:08.860Z,4.00
2019-06-07T20:28:39.105Z,3.47
2019-06-07T20:31:09.156Z,3.43
2019-06-07T20:33:39.231Z,3.50
2019-06-07T20:36:09.217Z,3.70
2019-06-07T20:38:39.835Z,3.40
2019-06-07T20:41:09.774Z,3.57
2019-06-07T20:43:39.793Z,3.70
2019-06-07T20:46:10.151Z,3.73
2019-06-07T20:48:40.270Z,3.70
2019-06-07T20:51:10.259Z,3.47
2019-06-07T20:53:40.238Z,3.87
2019-06-07T20:56:10.333Z,3.87
2019-06-07T20:58:40.912Z,3.40
2019-06-07T21:01:10.904Z,3.23
2019-06-07T21:03:40.943Z,3.10
2019-06-07T21:06:10.940Z,3.33
2019-06-07T21:08:41.040Z,2.90
2019-06-07T21:11:11.028Z,3.10
2019-06-07T21:13:41.109Z,3.23
2019-06-07T21:16:11.089Z,2.70
2019-06-07T21:18:41.102Z,2.63
2019-06-07T21:21:11.098Z,2.93
2019-06-07T21:23:41.109Z,2.40
2019-06-07T21:26:11.179Z,1.90
2019-06-07T21:28:42.441Z,2.20
2019-06-07T21:31:12.513Z,1.83
2019-06-07T21:33:42.521Z,1.83
2019-06-07T21:36:12.500Z,1.60
2019-06-07T21:38:42.520Z,1.57
2019-06-07T21:41:12.693Z,1.37
2019-06-07T21:43:42.686Z,1.70
2019-06-07T21:46:19.986Z,1.20
2019-06-07T21:48:44.389Z,1.27
2019-06-07T21:51:14.458Z,1.30
2019-06-07T21:53:44.436Z,1.40
2019-06-07T21:56:14.446Z,1.63
2019-06-07T21:58:44.427Z,1.13
2019-06-07T22:01:17.115Z,1.40
2019-06-07T22:03:48.164Z,1.30
2019-06-07T22:06:18.236Z,1.10
2019-06-07T22:08:48.242Z,1.20
2019-06-07T22:11:19.221Z,1.40
2019-06-07T22:13:49.194Z,1.37
2019-06-07T22:16:28.231Z,1.40
2019-06-07T22:18:50.878Z,1.23
2019-06-07T22:21:20.885Z,1.40
2019-06-07T22:23:50.863Z,1.30
2019-06-07T22:26:20.849Z,0.93
2019-06-07T22:28:50.855Z,0.93
2019-06-07T22:31:20.754Z,1.00
2019-06-07T22:33:50.778Z,1.13
2019-06-07T22:36:20.819Z,1.00
2019-06-07T22:38:50.846Z,1.00
2019-06-07T22:41:20.829Z,1.03
2019-06-07T22:43:50.835Z,0.80
2019-06-07T22:46:35.884Z,0.97
2019-06-07T22:48:52.519Z,0.63
2019-06-07T22:51:22.523Z,0.90
2019-06-07T22:53:52.498Z,1.03
2019-06-07T22:56:27.331Z,0.77
2019-06-07T22:58:57.376Z,0.83
2019-06-07T23:01:27.457Z,0.83
2019-06-07T23:03:57.423Z,1.00
2019-06-07T23:06:27.512Z,0.97
2019-06-07T23:08:57.593Z,0.93
2019-06-07T23:11:27.490Z,0.80
2019-06-07T23:13:57.505Z,0.80
2019-06-07T23:16:27.544Z,0.90
2019-06-07T23:18:57.557Z,0.80
2019-06-07T23:21:27.532Z,0.80
2019-06-07T23:23:57.548Z,0.63
2019-06-07T23:26:27.528Z,0.90
2019-06-07T23:28:57.543Z,0.77
2019-06-07T23:31:27.492Z,0.73
2019-06-07T23:33:57.469Z,0.80
2019-06-07T23:36:27.481Z,0.97
2019-06-07T23:38:57.452Z,0.87
2019-06-07T23:41:27.466Z,1.30
2019-06-07T23:43:57.470Z,0.83
2019-06-07T23:46:27.441Z,0.80
2019-06-07T23:48:57.551Z,0.70
2019-06-07T23:51:27.449Z,0.80
2019-06-07T23:53:57.592Z,0.80
2019-06-07T23:56:27.569Z,0.93
2019-06-07T23:58:58.080Z,0.87
